createdAt,value
2019-05-21T00:00:37.578Z,17.30
2019-05-21T00:03:06.258Z,17.20
2019-05-21T00:05:35.044Z,17.20
2019-05-21T00:08:03.738Z,17.20
2019-05-21T00:10:32.436Z,17.10
2019-05-21T00:13:01.159Z,17.10
2019-05-21T00:15:29.841Z,17.00
2019-05-21T00:17:58.591Z,16.90
2019-05-21T00:20:27.266Z,16.90
2019-05-21T00:22:55.953Z,16.80
2019-05-21T00:25:24.720Z,16.80
2019-05-21T00:27:56.664Z,16.70
2019-05-21T00:31:02.199Z,16.70
2019-05-21T00:34:07.538Z,16.70
2019-05-21T00:37:14.366Z,16.70
2019-05-21T00:40:19.611Z,16.70
2019-05-21T00:42:48.398Z,16.60
2019-05-21T00:45:17.088Z,16.50
2019-05-21T00:47:45.778Z,16.50
2019-05-21T00:50:14.512Z,16.40
2019-05-21T00:52:43.190Z,16.40
2019-05-21T00:55:11.960Z,16.30
2019-05-21T00:57:40.653Z,16.30
2019-05-21T01:00:10.014Z,16.20
2019-05-21T01:02:38.907Z,16.20
2019-05-21T01:05:07.586Z,16.10
2019-05-21T01:07:37.859Z,16.10
2019-05-21T01:10:06.969Z,16.00
2019-05-21T01:12:35.738Z,15.90
2019-05-21T01:15:06.705Z,15.90
2019-05-21T01:17:35.390Z,15.90
2019-05-21T01:20:04.071Z,15.90
2019-05-21T01:22:32.798Z,15.80
2019-05-21T01:25:01.487Z,15.90
2019-05-21T01:27:30.239Z,15.90
2019-05-21T01:29:58.914Z,15.90
2019-05-21T01:32:27.602Z,16.00
2019-05-21T01:34:56.353Z,16.00
2019-05-21T01:37:25.016Z,15.80
2019-05-21T01:39:53.786Z,15.90
2019-05-21T01:42:22.465Z,15.90
2019-05-21T01:44:51.147Z,15.80
2019-05-21T01:47:19.874Z,15.90
2019-05-21T01:49:48.567Z,15.80
2019-05-21T01:52:17.315Z,15.80
2019-05-21T01:54:46.012Z,15.80
2019-05-21T01:57:14.730Z,15.80
2019-05-21T01:59:43.537Z,15.70
2019-05-21T02:02:12.226Z,15.70
2019-05-21T02:04:40.916Z,15.70
2019-05-21T02:07:09.622Z,15.70
2019-05-21T02:09:56.487Z,15.60
2019-05-21T02:12:25.754Z,15.60
2019-05-21T02:14:54.449Z,15.70
2019-05-21T02:17:23.126Z,15.60
2019-05-21T02:19:51.845Z,15.60
2019-05-21T02:22:20.530Z,15.60
2019-05-21T02:24:49.279Z,15.50
2019-05-21T02:27:17.969Z,15.40
2019-05-21T02:29:46.654Z,15.40
2019-05-21T02:32:15.450Z,15.40
2019-05-21T02:34:44.139Z,15.30
2019-05-21T02:37:12.830Z,15.30
2019-05-21T02:39:41.553Z,15.30
2019-05-21T02:42:10.231Z,15.30
2019-05-21T02:44:38.999Z,15.20
2019-05-21T02:47:07.685Z,15.20
2019-05-21T02:49:36.362Z,15.10
2019-05-21T02:52:05.080Z,15.00
2019-05-21T02:54:40.893Z,15.00
2019-05-21T02:57:04.163Z,15.00
2019-05-21T02:59:32.862Z,15.00
2019-05-21T03:02:03.117Z,15.00
2019-05-21T03:04:31.849Z,15.00
2019-05-21T03:07:18.273Z,14.90
2019-05-21T03:09:48.025Z,14.90
2019-05-21T03:12:17.304Z,14.90
2019-05-21T03:14:46.295Z,14.90
2019-05-21T03:17:15.052Z,14.80
2019-05-21T03:19:43.735Z,14.70
2019-05-21T03:22:12.422Z,14.80
2019-05-21T03:24:41.148Z,14.80
2019-05-21T03:27:09.818Z,14.80
2019-05-21T03:29:38.608Z,14.80
2019-05-21T03:32:07.305Z,14.80
2019-05-21T03:34:35.991Z,14.80
2019-05-21T03:37:04.721Z,14.80
2019-05-21T03:39:33.617Z,14.80
2019-05-21T03:42:02.364Z,14.80
2019-05-21T03:44:31.044Z,14.80
2019-05-21T03:46:59.720Z,14.80
2019-05-21T03:49:28.447Z,14.90
2019-05-21T03:51:57.137Z,14.90
2019-05-21T03:54:25.914Z,15.00
2019-05-21T03:56:54.581Z,15.00
2019-05-21T03:59:23.266Z,15.10
2019-05-21T04:01:52.031Z,15.10
2019-05-21T04:04:20.719Z,15.10
2019-05-21T04:06:52.401Z,15.10
2019-05-21T04:09:19.787Z,15.10
2019-05-21T04:11:52.735Z,15.10
2019-05-21T04:14:32.313Z,15.10
2019-05-21T04:17:08.619Z,15.20
2019-05-21T04:19:38.928Z,15.20
2019-05-21T04:22:10.070Z,15.20
2019-05-21T04:24:38.770Z,15.20
2019-05-21T04:27:07.522Z,15.30
2019-05-21T04:29:36.209Z,15.30
2019-05-21T04:32:04.908Z,15.40
2019-05-21T04:34:33.639Z,15.40
2019-05-21T04:37:10.950Z,15.40
2019-05-21T04:39:32.693Z,15.40
2019-05-21T04:42:01.591Z,15.50
2019-05-21T04:44:30.287Z,15.60
2019-05-21T04:46:59.045Z,15.60
2019-05-21T04:49:27.734Z,15.70
2019-05-21T04:51:56.428Z,15.70
2019-05-21T04:54:25.174Z,15.70
2019-05-21T04:56:53.852Z,15.70
2019-05-21T04:59:22.649Z,15.70
2019-05-21T05:01:51.325Z,15.80
2019-05-21T05:04:21.986Z,15.90
2019-05-21T05:06:50.492Z,16.00
2019-05-21T05:09:19.279Z,16.20
2019-05-21T05:11:47.969Z,16.20
2019-05-21T05:14:16.690Z,16.20
2019-05-21T05:16:45.387Z,16.10
2019-05-21T05:19:14.151Z,16.10
2019-05-21T05:21:42.833Z,16.10
2019-05-21T05:24:11.543Z,16.00
2019-05-21T05:26:40.258Z,16.00
2019-05-21T05:29:08.954Z,16.10
2019-05-21T05:31:37.705Z,16.00
2019-05-21T05:34:06.415Z,16.00
2019-05-21T05:36:35.123Z,16.00
2019-05-21T05:39:05.051Z,16.10
2019-05-21T05:41:33.734Z,16.20
2019-05-21T05:44:02.487Z,16.20
2019-05-21T05:46:31.177Z,16.30
2019-05-21T05:49:04.558Z,16.40
2019-05-21T05:51:33.395Z,16.50
2019-05-21T05:54:02.123Z,16.50
2019-05-21T05:56:30.779Z,16.60
2019-05-21T05:58:59.530Z,16.60
2019-05-21T06:01:29.716Z,16.70
2019-05-21T06:03:58.461Z,16.90
2019-05-21T06:06:27.152Z,17.00
2019-05-21T06:08:55.835Z,17.00
2019-05-21T06:11:24.557Z,17.10
2019-05-21T06:13:53.259Z,17.20
2019-05-21T06:16:22.009Z,17.20
2019-05-21T06:18:50.690Z,17.20
2019-05-21T06:21:19.393Z,17.20
2019-05-21T06:23:48.110Z,17.30
2019-05-21T06:26:16.818Z,17.40
2019-05-21T06:28:45.566Z,17.40
2019-05-21T06:31:14.252Z,17.50
2019-05-21T06:33:46.239Z,17.70
2019-05-21T06:36:14.989Z,17.80
2019-05-21T06:38:44.857Z,17.80
2019-05-21T06:41:13.556Z,17.90
2019-05-21T06:43:42.292Z,18.00
2019-05-21T06:46:10.959Z,18.10
2019-05-21T06:48:39.707Z,18.10
2019-05-21T06:51:08.388Z,18.20
2019-05-21T06:53:37.259Z,18.30
2019-05-21T06:56:07.540Z,18.30
2019-05-21T06:58:36.347Z,18.40
2019-05-21T07:01:05.100Z,18.70
2019-05-21T07:03:33.784Z,18.70
2019-05-21T07:06:02.858Z,18.80
2019-05-21T07:08:34.722Z,18.80
2019-05-21T07:11:02.033Z,18.90
2019-05-21T07:13:31.288Z,19.00
2019-05-21T07:16:00.101Z,19.10
2019-05-21T07:18:28.806Z,19.30
2019-05-21T07:20:57.547Z,19.20
2019-05-21T07:23:26.247Z,19.20
2019-05-21T07:25:55.013Z,19.20
2019-05-21T07:28:23.705Z,19.30
2019-05-21T07:30:52.404Z,19.30
2019-05-21T07:33:21.174Z,19.30
2019-05-21T07:35:49.885Z,19.20
2019-05-21T07:38:18.578Z,19.20
2019-05-21T07:40:47.310Z,19.20
2019-05-21T07:43:16.000Z,19.20
2019-05-21T07:45:44.796Z,19.30
2019-05-21T07:48:13.482Z,19.50
2019-05-21T07:50:42.174Z,19.60
2019-05-21T07:53:10.919Z,19.70
2019-05-21T07:55:39.604Z,19.80
2019-05-21T07:58:08.375Z,19.90
2019-05-21T08:00:37.075Z,20.00
2019-05-21T08:03:05.769Z,20.00
2019-05-21T08:05:34.506Z,20.00
2019-05-21T08:08:03.224Z,20.20
2019-05-21T08:10:32.027Z,20.20
2019-05-21T08:13:00.716Z,20.20
2019-05-21T08:15:29.414Z,20.20
2019-05-21T08:17:58.185Z,20.20
2019-05-21T08:20:26.872Z,20.20
2019-05-21T08:22:55.568Z,20.30
2019-05-21T08:25:24.324Z,20.30
2019-05-21T08:27:53.029Z,20.40
2019-05-21T08:30:21.772Z,20.40
2019-05-21T08:32:50.469Z,20.40
2019-05-21T08:35:19.162Z,20.50
2019-05-21T08:37:47.907Z,20.30
2019-05-21T08:40:16.606Z,20.30
2019-05-21T08:42:45.366Z,20.40
2019-05-21T08:45:14.058Z,20.50
2019-05-21T08:47:42.762Z,20.60
2019-05-21T08:50:11.493Z,20.60
2019-05-21T08:52:40.190Z,20.70
2019-05-21T08:55:09.128Z,20.70
2019-05-21T08:57:37.872Z,20.70
2019-05-21T09:00:12.075Z,20.80
2019-05-21T09:02:40.839Z,20.80
2019-05-21T09:05:09.543Z,20.70
2019-05-21T09:07:38.235Z,20.60
2019-05-21T09:10:07.778Z,20.70
2019-05-21T09:12:36.520Z,20.60
2019-05-21T09:15:06.762Z,20.70
2019-05-21T09:17:35.456Z,20.70
2019-05-21T09:20:06.318Z,20.80
2019-05-21T09:22:35.094Z,20.80
2019-05-21T09:25:04.304Z,20.80
2019-05-21T09:27:33.291Z,20.90
2019-05-21T09:30:02.017Z,20.90
2019-05-21T09:32:30.819Z,20.90
2019-05-21T09:34:59.648Z,20.90
2019-05-21T09:37:28.330Z,20.90
2019-05-21T09:39:57.030Z,20.90
2019-05-21T09:42:25.771Z,20.90
2019-05-21T09:44:54.473Z,20.90
2019-05-21T09:47:23.332Z,21.00
2019-05-21T09:49:52.738Z,20.90
2019-05-21T09:52:21.438Z,20.90
2019-05-21T09:54:50.186Z,20.90
2019-05-21T09:57:23.302Z,20.90
2019-05-21T10:00:05.632Z,21.00
2019-05-21T10:02:35.555Z,21.10
2019-05-21T10:05:05.738Z,21.20
2019-05-21T10:07:39.816Z,21.20
2019-05-21T10:10:06.844Z,21.30
2019-05-21T10:12:35.634Z,21.40
2019-05-21T10:15:06.464Z,21.50
2019-05-21T10:17:35.152Z,21.60
2019-05-21T10:20:05.226Z,21.80
2019-05-21T10:22:33.924Z,21.80
2019-05-21T10:25:02.637Z,22.00
2019-05-21T10:27:31.354Z,22.10
2019-05-21T10:30:00.061Z,22.20
2019-05-21T10:32:28.820Z,22.20
2019-05-21T10:34:57.514Z,22.20
2019-05-21T10:37:26.198Z,22.20
2019-05-21T10:39:54.928Z,22.30
2019-05-21T10:42:23.622Z,22.40
2019-05-21T10:44:52.372Z,22.50
2019-05-21T10:47:21.114Z,22.70
2019-05-21T10:49:49.820Z,22.70
2019-05-21T10:52:18.550Z,22.80
2019-05-21T10:54:47.253Z,22.90
2019-05-21T10:57:16.018Z,23.00
2019-05-21T10:59:44.726Z,23.00
2019-05-21T11:02:17.787Z,23.10
2019-05-21T11:04:48.108Z,23.20
2019-05-21T11:07:17.806Z,23.30
2019-05-21T11:09:46.595Z,23.40
2019-05-21T11:12:15.314Z,23.60
2019-05-21T11:14:43.980Z,23.70
2019-05-21T11:17:13.034Z,23.70
2019-05-21T11:19:41.735Z,23.70
2019-05-21T11:22:10.417Z,23.90
2019-05-21T11:24:39.146Z,24.00
2019-05-21T11:27:07.842Z,24.10
2019-05-21T11:29:36.640Z,24.30
2019-05-21T11:32:05.335Z,24.40
2019-05-21T11:34:34.034Z,24.50
2019-05-21T11:37:02.815Z,24.60
2019-05-21T11:39:31.499Z,24.70
2019-05-21T11:42:00.280Z,24.70
2019-05-21T11:44:29.067Z,24.70
2019-05-21T11:46:57.758Z,24.90
2019-05-21T11:49:26.543Z,24.80
2019-05-21T11:51:55.418Z,24.80
2019-05-21T11:54:24.112Z,24.80
2019-05-21T11:56:52.838Z,24.80
2019-05-21T11:59:21.539Z,24.90
2019-05-21T12:01:50.305Z,24.90
2019-05-21T12:04:18.999Z,25.00
2019-05-21T12:06:47.688Z,25.20
2019-05-21T12:09:16.425Z,25.30
2019-05-21T12:11:45.112Z,25.30
2019-05-21T12:14:13.905Z,25.50
2019-05-21T12:16:42.828Z,25.50
2019-05-21T12:19:11.526Z,25.40
2019-05-21T12:21:40.269Z,25.20
2019-05-21T12:24:08.959Z,25.30
2019-05-21T12:26:37.728Z,25.30
2019-05-21T12:29:06.434Z,25.40
2019-05-21T12:31:35.117Z,25.20
2019-05-21T12:34:03.889Z,25.30
2019-05-21T12:36:35.738Z,25.20
2019-05-21T12:39:14.148Z,25.10
2019-05-21T12:41:36.823Z,24.90
2019-05-21T12:44:05.527Z,25.00
2019-05-21T12:46:34.315Z,24.90
2019-05-21T12:49:03.059Z,25.00
2019-05-21T12:51:31.798Z,25.20
2019-05-21T12:54:00.536Z,25.20
2019-05-21T12:56:29.248Z,25.20
2019-05-21T12:59:00.853Z,25.40
2019-05-21T13:01:28.372Z,25.60
2019-05-21T13:03:57.085Z,25.70
2019-05-21T13:06:25.845Z,26.30
2019-05-21T13:08:54.558Z,26.30
2019-05-21T13:11:23.319Z,26.30
2019-05-21T13:13:51.997Z,26.40
2019-05-21T13:16:20.693Z,26.50
2019-05-21T13:18:49.427Z,26.60
2019-05-21T13:21:18.098Z,26.50
2019-05-21T13:23:46.781Z,26.50
2019-05-21T13:26:15.513Z,26.20
2019-05-21T13:28:44.214Z,25.80
2019-05-21T13:31:12.972Z,25.70
2019-05-21T13:33:41.658Z,25.40
2019-05-21T13:36:10.402Z,25.20
2019-05-21T13:38:39.102Z,25.00
2019-05-21T13:41:09.358Z,25.10
2019-05-21T13:43:38.150Z,25.00
2019-05-21T13:46:06.830Z,25.00
2019-05-21T13:48:35.514Z,24.90
2019-05-21T13:51:04.262Z,24.80
2019-05-21T13:53:32.955Z,24.80
2019-05-21T13:56:01.638Z,24.70
2019-05-21T13:58:30.362Z,24.80
2019-05-21T14:00:59.157Z,24.80
2019-05-21T14:03:27.894Z,24.30
2019-05-21T14:05:56.585Z,24.30
2019-05-21T14:08:25.298Z,24.30
2019-05-21T14:10:54.016Z,24.70
2019-05-21T14:13:22.699Z,25.00
2019-05-21T14:15:51.478Z,25.00
2019-05-21T14:18:20.164Z,24.90
2019-05-21T14:20:48.849Z,25.20
2019-05-21T14:23:17.586Z,25.70
2019-05-21T14:25:46.260Z,26.30
2019-05-21T14:28:15.018Z,28.00
2019-05-21T14:30:43.706Z,30.30
2019-05-21T14:33:12.401Z,32.80
2019-05-21T14:35:41.114Z,33.80
2019-05-21T14:38:09.798Z,33.60
2019-05-21T14:40:38.584Z,32.60
2019-05-21T14:43:07.280Z,32.00
2019-05-21T14:45:35.964Z,31.50
2019-05-21T14:48:04.743Z,32.30
2019-05-21T14:50:33.475Z,33.30
2019-05-21T14:53:02.148Z,33.60
2019-05-21T14:55:30.840Z,33.90
2019-05-21T14:57:59.539Z,34.50
2019-05-21T15:00:35.724Z,34.10
2019-05-21T15:03:04.404Z,32.80
2019-05-21T15:05:34.310Z,31.10
2019-05-21T15:08:04.454Z,29.70
2019-05-21T15:10:47.201Z,28.70
2019-05-21T15:13:05.902Z,28.40
2019-05-21T15:15:34.990Z,28.30
2019-05-21T15:18:03.689Z,28.00
2019-05-21T15:20:40.075Z,27.50
2019-05-21T15:23:08.842Z,27.10
2019-05-21T15:25:37.526Z,27.70
2019-05-21T15:28:06.222Z,27.70
2019-05-21T15:30:34.951Z,27.40
2019-05-21T15:33:03.621Z,26.90
2019-05-21T15:35:32.974Z,26.40
2019-05-21T15:38:01.665Z,26.20
2019-05-21T15:40:30.363Z,25.80
2019-05-21T15:42:59.065Z,25.30
2019-05-21T15:45:27.749Z,25.00
2019-05-21T15:47:56.479Z,24.80
2019-05-21T15:50:25.177Z,24.70
2019-05-21T15:52:53.859Z,24.50
2019-05-21T15:55:22.567Z,24.30
2019-05-21T15:57:51.258Z,24.20
2019-05-21T16:00:20.149Z,24.10
2019-05-21T16:02:48.841Z,24.00
2019-05-21T16:05:17.520Z,23.80
2019-05-21T16:07:46.241Z,23.80
2019-05-21T16:10:14.920Z,23.70
2019-05-21T16:12:43.665Z,23.60
2019-05-21T16:15:12.354Z,23.50
2019-05-21T16:17:41.048Z,23.40
2019-05-21T16:20:09.758Z,23.40
2019-05-21T16:22:38.455Z,23.50
2019-05-21T16:25:07.214Z,23.40
2019-05-21T16:27:35.886Z,23.40
2019-05-21T16:30:06.494Z,23.40
2019-05-21T16:32:35.218Z,23.30
2019-05-21T16:35:06.062Z,23.00
2019-05-21T16:37:34.842Z,22.90
2019-05-21T16:40:04.226Z,22.50
2019-05-21T16:42:32.914Z,22.30
2019-05-21T16:45:01.667Z,22.10
2019-05-21T16:47:44.007Z,21.90
2019-05-21T16:50:00.759Z,21.90
2019-05-21T16:52:29.429Z,21.80
2019-05-21T16:54:58.170Z,21.60
2019-05-21T16:57:26.902Z,21.60
2019-05-21T16:59:55.572Z,21.50
2019-05-21T17:02:24.326Z,21.50
2019-05-21T17:04:53.000Z,21.50
2019-05-21T17:07:21.688Z,21.30
2019-05-21T17:09:50.410Z,21.40
2019-05-21T17:12:19.095Z,21.40
2019-05-21T17:14:49.915Z,21.40
2019-05-21T17:17:18.296Z,21.30
2019-05-21T17:19:47.030Z,21.30
2019-05-21T17:22:15.762Z,21.20
2019-05-21T17:24:44.454Z,21.10
2019-05-21T17:27:13.304Z,21.10
2019-05-21T17:29:42.022Z,21.00
2019-05-21T17:32:10.725Z,21.00
2019-05-21T17:34:39.418Z,20.90
2019-05-21T17:37:08.094Z,21.00
2019-05-21T17:39:36.900Z,21.00
2019-05-21T17:42:15.025Z,21.10
2019-05-21T17:44:36.417Z,21.10
2019-05-21T17:47:05.140Z,21.20
2019-05-21T17:49:33.818Z,21.30
2019-05-21T17:52:02.722Z,21.30
2019-05-21T17:54:31.463Z,21.40
2019-05-21T17:57:00.133Z,21.40
2019-05-21T17:59:28.874Z,21.40
2019-05-21T18:01:57.770Z,21.30
2019-05-21T18:04:26.446Z,21.30
2019-05-21T18:06:56.675Z,21.30
2019-05-21T18:09:26.684Z,21.30
2019-05-21T18:11:55.460Z,21.20
2019-05-21T18:14:24.153Z,21.10
2019-05-21T18:16:52.836Z,21.00
2019-05-21T18:19:21.563Z,21.00
2019-05-21T18:21:50.461Z,21.10
2019-05-21T18:24:19.230Z,21.10
2019-05-21T18:26:47.950Z,21.10
2019-05-21T18:29:16.627Z,21.00
2019-05-21T18:31:45.549Z,20.80
2019-05-21T18:34:14.238Z,20.60
2019-05-21T18:36:43.036Z,20.50
2019-05-21T18:39:11.728Z,20.50
2019-05-21T18:41:40.430Z,20.70
2019-05-21T18:44:09.575Z,20.60
2019-05-21T18:46:38.259Z,20.30
2019-05-21T18:49:07.189Z,20.20
2019-05-21T18:51:35.894Z,20.00
2019-05-21T18:54:04.579Z,19.80
2019-05-21T18:56:33.324Z,19.70
2019-05-21T18:59:01.997Z,19.60
2019-05-21T19:01:31.084Z,19.60
2019-05-21T19:04:11.523Z,19.60
2019-05-21T19:07:04.821Z,19.60
2019-05-21T19:09:37.445Z,19.60
2019-05-21T19:12:09.337Z,19.70
2019-05-21T19:14:46.156Z,19.60
2019-05-21T19:17:35.059Z,19.50
2019-05-21T19:19:57.048Z,19.40
2019-05-21T19:22:29.502Z,19.20
2019-05-21T19:24:58.513Z,19.00
2019-05-21T19:27:27.193Z,19.00
2019-05-21T19:29:55.964Z,18.90
2019-05-21T19:32:24.647Z,19.00
2019-05-21T19:34:53.336Z,19.00
2019-05-21T19:37:22.083Z,19.10
2019-05-21T19:39:50.790Z,19.30
2019-05-21T19:42:19.552Z,19.40
2019-05-21T19:44:48.250Z,19.50
2019-05-21T19:47:16.932Z,19.50
2019-05-21T19:49:45.661Z,19.60
2019-05-21T19:52:14.353Z,19.70
2019-05-21T19:54:43.087Z,19.70
2019-05-21T19:57:11.794Z,19.70
2019-05-21T19:59:40.486Z,19.70
2019-05-21T20:02:09.360Z,19.70
2019-05-21T20:04:38.036Z,19.70
2019-05-21T20:07:08.359Z,19.70
2019-05-21T20:09:38.167Z,19.70
2019-05-21T20:12:07.947Z,19.60
2019-05-21T20:14:37.083Z,19.40
2019-05-21T20:17:05.954Z,19.40
2019-05-21T20:19:35.027Z,19.30
2019-05-21T20:22:04.749Z,19.30
2019-05-21T20:24:33.443Z,19.20
2019-05-21T20:27:02.900Z,19.20
2019-05-21T20:29:31.895Z,19.10
2019-05-21T20:32:00.735Z,19.10
2019-05-21T20:34:29.912Z,19.00
2019-05-21T20:36:58.599Z,18.90
2019-05-21T20:39:28.938Z,18.80
2019-05-21T20:41:57.922Z,18.80
2019-05-21T20:44:27.010Z,18.80
2019-05-21T20:46:57.228Z,18.60
2019-05-21T20:49:26.418Z,18.20
2019-05-21T20:51:55.294Z,18.10
2019-05-21T20:54:25.283Z,17.90
2019-05-21T20:56:53.962Z,17.80
2019-05-21T20:59:22.716Z,17.60
2019-05-21T21:01:51.410Z,17.60
2019-05-21T21:04:20.183Z,17.60
2019-05-21T21:06:48.951Z,17.50
2019-05-21T21:09:17.667Z,17.40
2019-05-21T21:11:46.467Z,17.40
2019-05-21T21:14:18.253Z,17.20
2019-05-21T21:16:46.783Z,17.10
2019-05-21T21:19:15.852Z,17.00
2019-05-21T21:21:44.554Z,16.80
2019-05-21T21:24:13.433Z,16.80
2019-05-21T21:26:42.412Z,16.60
2019-05-21T21:29:11.092Z,16.50
2019-05-21T21:31:39.809Z,16.50
2019-05-21T21:34:08.999Z,16.60
2019-05-21T21:36:38.160Z,16.50
2019-05-21T21:39:07.934Z,16.50
2019-05-21T21:41:36.991Z,16.50
2019-05-21T21:44:05.846Z,16.50
2019-05-21T21:46:34.596Z,16.50
2019-05-21T21:49:03.419Z,16.50
2019-05-21T21:51:32.318Z,16.50
2019-05-21T21:54:01.738Z,16.50
2019-05-21T21:56:33.727Z,16.50
2019-05-21T21:59:05.777Z,16.50
2019-05-21T22:01:56.085Z,16.50
2019-05-21T22:04:30.128Z,16.50
2019-05-21T22:07:01.999Z,16.50
2019-05-21T22:09:31.980Z,16.50
2019-05-21T22:12:04.526Z,16.50
2019-05-21T22:14:49.198Z,16.40
2019-05-21T22:17:07.422Z,16.40
2019-05-21T22:19:38.856Z,16.50
2019-05-21T22:22:08.342Z,16.60
2019-05-21T22:24:42.990Z,16.60
2019-05-21T22:27:14.732Z,16.60
2019-05-21T22:29:49.201Z,16.70
2019-05-21T22:32:21.074Z,16.70
2019-05-21T22:34:49.747Z,16.70
2019-05-21T22:37:22.886Z,16.60
2019-05-21T22:39:55.376Z,16.70
2019-05-21T22:42:24.558Z,16.60
2019-05-21T22:45:07.518Z,16.60
2019-05-21T22:47:27.569Z,16.70
2019-05-21T22:49:58.923Z,16.80
2019-05-21T22:52:31.118Z,16.80
2019-05-21T22:54:59.818Z,16.80
2019-05-21T22:57:32.186Z,16.80
2019-05-21T23:00:03.981Z,16.70
2019-05-21T23:02:34.466Z,16.70
2019-05-21T23:05:10.166Z,16.60
2019-05-21T23:07:38.850Z,16.60
2019-05-21T23:10:11.271Z,16.60
2019-05-21T23:12:44.088Z,16.60
2019-05-21T23:15:24.239Z,16.60
2019-05-21T23:17:45.883Z,16.60
2019-05-21T23:20:15.076Z,16.60
2019-05-21T23:22:48.076Z,16.60
2019-05-21T23:25:20.535Z,16.60
2019-05-21T23:27:53.850Z,16.60
2019-05-21T23:30:23.239Z,16.60
2019-05-21T23:32:52.317Z,16.60
2019-05-21T23:35:22.019Z,16.60
2019-05-21T23:37:50.914Z,16.80
2019-05-21T23:40:19.594Z,16.70
2019-05-21T23:42:48.337Z,16.70
2019-05-21T23:45:17.330Z,16.70
2019-05-21T23:47:45.994Z,16.70
2019-05-21T23:50:15.418Z,16.70
2019-05-21T23:52:45.208Z,16.60
2019-05-21T23:55:14.681Z,16.60
2019-05-21T23:57:43.342Z,16.70
